Latest Weather Observations for Montague Island

IDN60801

Issued at 6:33 pm EST Saturday 1 October 2016 (issued every 30 minutes, with the page automatically refreshed every 10 minutes)

About weather observations | Map of weather stations | Latest weather observations for NSW | Other Formats
Station Details ID: 069017 Name: MONTAGUE ISLAND LIGHTHOUSE Lat: -36.25 Lon: 150.23 Height: 52.0 m
Data from the previous 72 hours. | See also: Recent months at Montague Island
Date/Time
EST
Temp
°C
App
Temp
°C
Dew
Point
°C
Rel
Hum
%
Delta-T
°C
Wind Press
QNH
hPa
Press
MSL
hPa
Rain since
9am
mm
Dir  Spd
km/h
Gust
km/h
Spd
kts
Gust
kts
01/06:30pm 16.5 14.8 12.3 76 2.3 SW 13 15 7 8 1004.4 1004.3 0.0
01/06:00pm 16.9 15.4 12.0 73 2.7 SW 11 17 6 9 1003.7 1003.6 0.0
01/05:30pm 17.5 15.4 11.1 66 3.5 SSW 13 15 7 8 1003.0 1002.9 0.0
01/05:00pm 17.7 16.5 11.7 68 3.3 ESE 9 13 5 7 1002.3 1002.2 0.0
01/04:30pm 18.3 16.5 10.9 62 4.0 E 11 15 6 8 1001.7 1001.6 0.0
01/04:00pm 18.5 15.1 11.3 63 4.0 SE 20 28 11 15 1001.3 1001.2 0.0
01/03:30pm 19.7 17.5 7.8 46 6.1 E 9 22 5 12 1000.6 1000.5 0.0
01/03:00pm 18.5 16.3 12.0 66 3.6 ESE 15 20 8 11 1000.5 1000.4 0.0
01/02:30pm 19.1 15.1 11.7 62 4.1 SE 24 28 13 15 1000.4 1000.3 0.0
01/02:00pm 20.7 16.1 8.0 44 6.6 SW 22 50 12 27 1000.3 1000.2 0.0
01/01:46pm 22.4 15.3 5.4 33 8.5 WNW 32 50 17 27 999.8 999.7 0.0
01/01:30pm 22.2 15.0 6.0 35 8.2 WNW 33 48 18 26 999.8 999.7 0.0
01/01:00pm 21.3 14.6 7.5 41 7.2 WNW 32 44 17 24 999.8 999.7 0.0
01/12:30pm 20.7 15.7 6.3 39 7.3 WNW 22 33 12 18 999.8 999.7 0.0
01/12:00pm 19.6 16.8 8.6 49 5.8 N 13 20 7 11 1000.2 1000.1 0.0
01/11:30am 19.6 17.0 9.2 51 5.5 NNE 13 17 7 9 1000.7 1000.6 0.0
01/11:00am 19.1 16.1 7.5 47 5.9 NNE 13 17 7 9 1000.8 1000.7 0.0
01/10:30am 18.5 16.1 10.1 58 4.5 NNE 13 17 7 9 1001.1 1001.0 0.0
01/10:00am 16.3 13.1 8.5 60 4.0 NE 15 17 8 9 1001.3 1001.2 0.0
01/09:30am 16.5 13.3 6.9 53 4.8 NE 13 17 7 9 1001.4 1001.3 0.0
01/09:00am 15.8 13.0 8.5 62 3.7 NNE 13 17 7 9 1001.4 1001.3 0.0
01/08:30am 15.5 13.1 8.7 64 3.5 NNE 11 17 6 9 1001.3 1001.2 0.0
01/08:00am 15.7 13.1 5.9 52 4.8 NNE 9 15 5 8 1001.4 1001.3 0.0
01/07:30am 14.8 12.3 8.1 64 3.4 NE 11 15 6 8 1001.2 1001.1 0.0
01/07:00am 14.4 11.8 7.7 64 3.3 NNW 11 15 6 8 1000.9 1000.8 0.0
01/06:30am 13.6 10.7 6.7 63 3.3 NW 11 15 6 8 1000.4 1000.3 0.0
01/06:00am 12.9 9.8 7.4 69 2.7 NW 13 15 7 8 1000.1 1000.0 0.0
01/05:30am 12.5 9.4 7.4 71 2.5 NW 13 15 7 8 999.9 999.8 0.0
01/05:00am 13.1 10.7 7.1 67 2.9 WNW 9 13 5 7 999.6 999.5 0.0
01/04:30am 13.2 9.5 6.5 64 3.2 WNW 15 19 8 10 998.9 998.8 0.0
01/04:00am 12.9 9.4 7.1 68 2.8 NW 15 19 8 10 998.6 998.5 0.0
01/03:30am 12.3 8.7 6.8 69 2.6 WNW 15 19 8 10 998.6 998.5 0.0
01/03:00am 12.3 9.1 7.0 70 2.6 NW 13 17 7 9 998.3 998.2 0.0
01/02:30am 12.5 9.3 7.0 69 2.7 NW 13 17 7 9 998.2 998.1 0.0
01/02:00am 12.7 9.2 7.4 70 2.6 NW 15 19 8 10 997.9 997.8 0.0
01/01:30am 12.4 8.7 6.5 67 2.8 NW 15 20 8 11 998.0 997.9 0.0
01/01:00am 12.6 8.9 6.4 66 3.0 NW 15 19 8 10 998.0 997.9 0.0
01/12:30am 13.1 10.3 6.9 66 3.0 NW 11 15 6 8 998.0 997.9 0.0
01/12:00am 13.4 10.5 6.3 62 3.4 NNW 11 15 6 8 997.8 997.7 0.0
 
Date/Time
EST
Temp
°C
App
Temp
°C
Dew
Point
°C
Rel
Hum
%
Delta-T
°C
Wind Press
QNH
hPa
Press
MSL
hPa
Rain since
9am
mm
Dir  Spd
km/h
Gust
km/h
Spd
kts
Gust
kts
30/11:30pm 13.5 12.3 6.4 62 3.4 SW 2 4 1 2 997.8 997.7 0.0
30/11:00pm 13.6 12.2 7.4 66 3.1 SSW 4 6 2 3 998.1 998.0 0.0
30/10:30pm 14.0 11.7 4.9 54 4.2 W 6 13 3 7 997.9 997.8 0.0
30/10:00pm 14.5 11.2 4.8 52 4.6 WNW 11 15 6 8 997.8 997.7 0.0
30/09:30pm 14.5 10.4 4.5 51 4.6 WNW 15 19 8 10 997.4 997.3 0.0
30/09:00pm 14.6 9.8 4.9 52 4.6 W 19 22 10 12 997.0 996.9 0.0
30/08:30pm 14.8 10.0 4.5 50 4.8 W 19 22 10 12 997.1 997.0 0.0
30/08:00pm 15.0 10.1 5.0 51 4.7 W 20 26 11 14 996.2 996.1 0.0
30/07:30pm 15.5 9.8 4.8 49 5.0 W 24 28 13 15 995.6 995.5 0.0
30/07:00pm 15.5 9.8 5.1 50 5.0 W 24 30 13 16 995.2 995.1 0.0
30/06:30pm 16.0 10.3 5.0 48 5.2 W 24 30 13 16 994.7 994.6 0.0
30/06:00pm 16.5 11.2 4.9 46 5.6 W 22 32 12 17 994.0 993.9 0.0
30/05:30pm 16.7 11.7 7.9 56 4.5 NNW 24 33 13 18 993.2 993.2 0.0
30/05:00pm 16.6 11.0 8.6 59 4.1 NNW 28 41 15 22 992.9 992.9 0.0
30/04:30pm 16.3 9.7 7.8 57 4.3 NNW 32 46 17 25 992.4 992.4 0.0
30/04:00pm 16.7 9.2 8.1 57 4.4 NNW 37 50 20 27 991.8 991.8 0.0
30/03:30pm 16.1 9.6 8.3 60 4.0 NNW 32 50 17 27 991.4 991.4 0.0
30/03:25pm 16.0 9.6 8.7 62 3.7 N 32 50 17 27 991.3 991.3 0.0
30/03:00pm 17.1 9.5 7.7 54 4.8 N 37 52 20 28 991.2 991.2 0.0
30/02:50pm 17.5 11.7 8.1 54 4.8 NNW 28 48 15 26 991.4 991.4 0.0
30/02:30pm 17.3 10.7 7.9 54 4.8 NNW 32 46 17 25 991.6 991.6 0.0
30/02:09pm 17.0 11.3 8.2 56 4.5 N 28 46 15 25 991.5 991.5 0.0
30/02:00pm 17.0 12.2 8.7 58 4.3 N 24 39 13 21 991.7 991.7 0.0
30/01:41pm 16.3 10.6 8.5 60 4.0 N 28 46 15 25 991.9 991.9 0.0
30/01:30pm 16.2 10.4 7.9 58 4.2 N 28 44 15 24 991.9 991.9 0.0
30/01:00pm 15.6 8.7 7.4 58 4.1 N 33 46 18 25 992.0 992.0 0.0
30/12:30pm 15.9 9.1 7.9 59 4.0 NNW 33 48 18 26 992.2 992.2 0.0
30/12:00pm 16.0 10.1 7.5 57 4.3 N 28 43 15 23 992.6 992.6 0.0
30/11:30am 15.4 9.4 7.2 58 4.1 N 28 41 15 22 992.8 992.8 0.0
30/11:15am 15.4 9.4 6.9 57 4.2 NNW 28 48 15 26 993.0 993.0 0.0
30/11:00am 15.2 9.6 7.0 58 4.1 N 26 39 14 21 993.0 993.0 0.0
30/10:30am 14.8 10.1 7.8 63 3.5 N 22 33 12 18 993.2 993.2 0.0
30/10:00am 14.3 9.0 6.9 61 3.6 N 24 35 13 19 993.7 993.6 0.0
30/09:30am 14.2 8.9 7.0 62 3.5 N 24 39 13 21 993.7 993.6 0.0
30/09:00am 13.8 8.1 6.9 63 3.4 N 26 43 14 23 993.8 993.7 4.4
30/08:30am 13.6 7.7 6.0 60 3.6 N 26 33 14 18 994.0 993.9 4.4
30/08:00am 13.8 8.3 5.9 59 3.8 N 24 35 13 19 994.0 993.9 4.4
30/07:30am 13.4 8.3 5.8 60 3.6 N 22 30 12 16 994.1 994.0 4.4
30/07:00am 13.4 7.8 5.6 59 3.7 N 24 32 13 17 993.9 993.8 4.4
30/06:30am 13.2 7.7 5.9 61 3.5 N 24 33 13 18 993.8 993.7 4.4
30/06:00am 13.2 7.7 6.1 62 3.4 N 24 35 13 19 993.9 993.8 4.4
30/05:30am 13.2 7.7 5.9 61 3.5 N 24 33 13 18 993.8 993.7 4.4
30/05:00am 13.3 7.4 5.7 60 3.6 N 26 35 14 19 993.4 993.4 4.4
30/04:30am 13.7 8.5 5.6 58 3.8 N 22 32 12 17 993.5 993.5 4.4
30/04:00am 13.9 8.2 4.8 54 4.3 N 24 33 13 18 993.4 993.4 4.4
30/03:30am 13.7 6.9 5.3 57 3.9 NNW 30 43 16 23 993.3 993.3 4.4
30/03:00am 13.6 8.8 5.5 58 3.9 NNW 20 30 11 16 993.5 993.5 4.4
30/02:30am 13.3 8.6 5.2 58 3.8 N 19 24 10 13 993.7 993.6 4.4
30/02:00am 13.1 8.7 4.5 56 4.0 N 17 20 9 11 994.1 994.0 4.4
30/01:30am 13.2 9.4 4.1 54 4.1 N 13 17 7 9 994.4 994.3 4.4
30/01:00am 13.2 9.5 4.4 55 4.1 NNW 13 17 7 9 994.7 994.6 4.4
30/12:30am 13.9 9.0 3.9 51 4.6 NW 19 24 10 13 994.8 994.7 4.4
30/12:00am 13.8 8.9 3.9 51 4.6 NW 19 26 10 14 994.9 994.8 4.4
 
Date/Time
EST
Temp
°C
App
Temp
°C
Dew
Point
°C
Rel
Hum
%
Delta-T
°C
Wind Press
QNH
hPa
Press
MSL
hPa
Rain since
9am
mm
Dir  Spd
km/h
Gust
km/h
Spd
kts
Gust
kts
29/11:30pm 13.9 8.9 3.7 50 4.6 NW 19 28 10 15 994.7 994.6 4.4
29/11:00pm 14.1 8.9 3.6 49 4.8 NW 20 30 11 16 994.6 994.5 4.4
29/10:30pm 14.3 9.0 3.2 47 5.0 NW 20 33 11 18 994.4 994.3 4.4
29/10:00pm 14.7 8.0 3.5 47 5.1 NW 28 41 15 22 994.1 994.0 4.4
29/09:30pm 14.8 8.6 4.2 49 4.9 NW 26 39 14 21 994.0 993.9 4.4
29/09:18pm 15.0 8.3 3.8 47 5.1 NW 28 48 15 26 993.9 993.8 4.4
29/09:00pm 14.8 10.5 5.1 52 4.6 NW 17 28 9 15 993.9 993.8 4.4
29/08:30pm 15.4 9.7 4.8 49 5.0 NW 24 35 13 19 994.0 993.9 4.4
29/08:00pm 15.3 11.1 5.5 52 4.7 NW 17 24 9 13 993.9 993.8 4.4
29/07:30pm 15.6 11.9 6.1 53 4.6 WNW 15 19 8 10 993.7 993.6 4.4
29/07:00pm 15.9 12.6 6.3 53 4.7 WNW 13 17 7 9 993.2 993.2 4.4
29/06:30pm 16.7 12.1 6.5 51 5.0 NW 20 32 11 17 992.7 992.7 4.4
29/06:00pm 17.2 11.7 5.8 47 5.6 NNW 24 41 13 22 992.3 992.3 4.4
29/05:30pm 17.4 11.2 6.3 48 5.5 NNW 28 39 15 21 992.0 992.0 4.4
29/05:00pm 17.4 11.2 6.3 48 5.5 NW 28 41 15 22 991.8 991.8 4.4
29/04:30pm 18.1 11.3 7.5 50 5.4 NNW 33 46 18 25 991.2 991.2 4.4
29/04:00pm 18.5 11.6 7.3 48 5.7 NNW 33 48 18 26 990.6 990.6 4.4
29/03:30pm 17.3 11.7 12.0 71 2.9 NNE 33 43 18 23 990.6 990.6 4.4
29/03:00pm 17.4 11.9 11.9 70 3.1 NNE 32 46 17 25 990.6 990.6 4.4
29/02:30pm 17.4 12.1 13.1 76 2.4 N 33 46 18 25 991.1 991.1 4.4
29/02:00pm 17.1 10.8 13.6 80 2.0 NNE 39 54 21 29 991.1 991.1 4.4
29/01:30pm 16.5 9.1 13.2 81 1.8 NNE 44 59 24 32 991.2 991.2 4.4
29/01:00pm 16.3 9.7 12.7 79 2.0 N 39 57 21 31 992.1 992.1 4.4
29/12:53pm 16.3 10.6 13.0 81 1.8 N 35 57 19 31 992.3 992.3 4.4
29/12:30pm 15.5 9.1 13.2 86 1.3 N 39 56 21 30 993.2 993.2 4.4
29/12:00pm 15.1 7.6 12.8 86 1.3 N 44 67 24 36 994.0 993.9 4.4
29/11:30am 14.7 7.3 12.9 89 1.0 N 44 70 24 38 994.7 994.6 4.4
29/11:00am 15.0 7.8 13.7 92 0.7 N 44 65 24 35 994.8 994.7 3.6
29/10:30am 14.7 8.5 13.7 94 0.6 N 39 57 21 31 994.7 994.6 3.4
29/10:02am 14.7 7.5 13.6 93 0.6 N 44 69 24 37 995.6 995.5 2.6
29/10:00am 14.8 7.6 13.7 93 0.6 N 44 61 24 33 995.7 995.6 2.6
29/09:31am 14.8 9.4 14.0 95 0.5 N 35 54 19 29 996.5 996.4 1.2
29/09:30am 14.9 9.9 14.1 95 0.5 N 33 46 18 25 996.6 996.5 1.2
29/09:00am 14.6 9.4 13.5 93 0.6 N 33 46 18 25 996.7 996.6 2.8
29/08:30am 13.9 10.2 12.6 92 0.7 NNE 24 32 13 17 997.6 997.5 1.8
29/08:00am 13.0 9.6 11.1 88 1.0 NNW 20 26 11 14 998.9 998.8 1.2
29/07:30am 13.7 10.5 11.2 85 1.3 NNW 19 26 10 14 999.2 999.1 0.2
29/07:00am 14.0 10.7 11.5 85 1.3 NNW 20 28 11 15 999.5 999.4 0.0
29/06:30am 15.1 10.3 11.7 80 1.8 N 28 43 15 23 1000.0 999.9 0.0
29/06:00am 15.0 11.1 10.8 76 2.2 N 22 33 12 18 1000.1 1000.0 0.0
29/05:30am 14.9 10.6 10.7 76 2.2 NNW 24 35 13 19 1000.3 1000.2 0.0
29/05:00am 15.0 11.2 11.2 78 2.0 NNW 22 32 12 17 1000.4 1000.3 0.0
29/04:30am 15.5 11.8 11.5 77 2.2 N 22 30 12 16 1000.8 1000.7 0.0
29/04:00am 14.4 10.7 10.2 76 2.2 N 20 24 11 13 1001.2 1001.1 0.0
29/03:30am 14.2 10.5 9.6 74 2.4 NNW 19 26 10 14 1002.0 1001.9 0.0
29/03:00am 14.8 10.6 9.6 71 2.7 N 22 32 12 17 1002.6 1002.6 0.0
29/02:30am 14.6 11.0 10.4 76 2.2 N 20 26 11 14 1003.3 1003.3 0.0
29/02:00am 14.7 11.0 10.1 74 2.4 N 20 30 11 16 1004.0 1004.0 0.0
29/01:30am 14.5 11.0 10.3 76 2.2 N 19 22 10 12 1004.6 1004.6 0.0
29/01:00am 14.4 10.6 9.8 74 2.4 N 20 26 11 14 1005.1 1005.1 0.0
29/12:30am 14.5 11.3 9.9 74 2.4 N 17 22 9 12 1005.9 1005.9 0.0
29/12:00am 14.6 11.0 9.8 73 2.5 N 19 22 10 12 1006.5 1006.5 0.0
 
Date/Time
EST
Temp
°C
App
Temp
°C
Dew
Point
°C
Rel
Hum
%
Delta-T
°C
Wind Press
QNH
hPa
Press
MSL
hPa
Rain since
9am
mm
Dir  Spd
km/h
Gust
km/h
Spd
kts
Gust
kts
28/11:30pm 14.4 10.8 10.0 75 2.3 NNW 19 26 10 14 1006.8 1006.8 0.0
28/11:00pm 14.7 11.5 10.1 74 2.4 NNW 17 20 9 11 1007.2 1007.2 0.0
28/10:30pm 14.9 11.2 10.3 74 2.4 NNW 20 26 11 14 1007.6 1007.6 0.0
28/10:00pm 15.5 11.9 10.5 72 2.7 N 20 32 11 17 1008.0 1008.0 0.0
28/09:30pm 15.8 11.0 8.8 63 3.6 N 24 33 13 18 1008.2 1008.2 0.0
28/09:00pm 15.7 10.9 8.7 63 3.6 NNE 24 33 13 18 1008.6 1008.6 0.0
28/08:30pm 15.4 11.1 7.9 61 3.8 NNE 20 26 11 14 1009.0 1009.0 0.0
28/08:00pm 15.5 11.2 6.8 56 4.3 NNE 19 28 10 15 1009.2 1009.2 0.0
28/07:30pm 15.4 10.9 6.9 57 4.2 NNE 20 24 11 13 1009.0 1009.0 0.0
28/07:00pm 15.3 11.1 7.3 59 4.0 NNE 19 24 10 13 1009.1 1009.1 0.0

Other Formats:

Comma delimited format used in spreadsheet applications
http://www.bom.gov.au/fwo/IDN60801/IDN60801.94939.axf

JavaScript Object Notation format (JSON) in row-major order
http://www.bom.gov.au/fwo/IDN60801/IDN60801.94939.json